createdAt,value
2023-02-26T00:01:37.465Z,56.81
2023-02-26T00:03:40.518Z,56.51
2023-02-26T00:05:44.512Z,56.56
2023-02-26T00:07:47.076Z,56.57
2023-02-26T00:09:49.632Z,56.72
2023-02-26T00:11:52.532Z,56.26
2023-02-26T00:13:56.298Z,56.65
2023-02-26T00:16:02.082Z,56.69
2023-02-26T00:18:07.992Z,56.69
2023-02-26T00:20:12.610Z,56.63
2023-02-26T00:22:17.452Z,57.02
2023-02-26T00:24:20.054Z,57.14
2023-02-26T00:26:24.704Z,57.08
2023-02-26T00:28:27.884Z,57.19
2023-02-26T00:30:31.181Z,57.05
2023-02-26T00:32:35.226Z,57.41
2023-02-26T00:34:38.490Z,57.31
2023-02-26T00:36:49.463Z,57.07
2023-02-26T00:39:06.571Z,57.17
2023-02-26T00:41:09.703Z,56.95
2023-02-26T00:43:16.524Z,57.20
2023-02-26T00:45:20.087Z,57.71
2023-02-26T00:47:30.397Z,57.29
2023-02-26T00:49:46.268Z,57.44
2023-02-26T00:51:52.550Z,57.73
2023-02-26T00:54:04.744Z,58.24
2023-02-26T00:56:07.378Z,58.35
2023-02-26T00:58:09.955Z,58.00
2023-02-26T01:00:14.045Z,57.85
2023-02-26T01:02:16.639Z,57.97
2023-02-26T01:04:22.097Z,58.39
2023-02-26T01:06:28.734Z,58.31
2023-02-26T01:08:38.772Z,57.83
2023-02-26T01:10:43.570Z,58.02
2023-02-26T01:12:46.677Z,58.64
2023-02-26T01:14:50.524Z,58.51
2023-02-26T01:17:00.333Z,58.50
2023-02-26T01:19:13.486Z,58.69
2023-02-26T01:21:20.168Z,58.89
2023-02-26T01:23:26.271Z,58.60
2023-02-26T01:25:36.114Z,58.45
2023-02-26T01:27:40.552Z,58.32
2023-02-26T01:29:43.573Z,58.77
2023-02-26T01:31:52.098Z,58.65
2023-02-26T01:34:00.241Z,58.56
2023-02-26T01:36:08.615Z,58.08
2023-02-26T01:38:20.679Z,57.79
2023-02-26T01:41:10.752Z,58.11
2023-02-26T01:43:20.355Z,57.93
2023-02-26T01:45:31.548Z,57.78
2023-02-26T01:47:41.167Z,58.25
2023-02-26T01:49:44.493Z,58.10
2023-02-26T01:51:51.958Z,57.75
2023-02-26T01:53:54.593Z,57.79
2023-02-26T01:55:59.632Z,57.46
2023-02-26T01:58:03.750Z,57.25
2023-02-26T02:00:09.549Z,57.41
2023-02-26T02:02:15.577Z,57.37
2023-02-26T02:04:18.393Z,57.10
2023-02-26T02:06:24.406Z,57.01
2023-02-26T02:08:27.539Z,56.42
2023-02-26T02:10:30.677Z,57.01
2023-02-26T02:12:39.447Z,57.48
2023-02-26T02:14:57.318Z,57.15
2023-02-26T02:17:08.093Z,56.97
2023-02-26T02:19:54.564Z,57.05
2023-02-26T02:22:16.052Z,57.17
2023-02-26T02:24:29.273Z,57.04
2023-02-26T02:27:06.252Z,57.30
2023-02-26T02:29:33.483Z,56.43
2023-02-26T02:31:42.332Z,56.98
2023-02-26T02:33:49.896Z,57.03
2023-02-26T02:35:58.880Z,56.56
2023-02-26T02:38:07.537Z,56.74
2023-02-26T02:40:15.104Z,56.96
2023-02-26T02:42:27.634Z,56.92
2023-02-26T02:44:33.474Z,56.90
2023-02-26T02:46:40.136Z,56.88
2023-02-26T02:48:47.592Z,56.54
2023-02-26T02:50:55.213Z,56.74
2023-02-26T02:53:02.037Z,56.85
2023-02-26T02:55:09.751Z,57.26
2023-02-26T02:57:17.048Z,56.83
2023-02-26T02:59:23.519Z,56.96
2023-02-26T03:01:28.831Z,56.98
2023-02-26T03:03:40.305Z,56.45
2023-02-26T03:05:43.758Z,56.80
2023-02-26T03:07:51.276Z,56.64
2023-02-26T03:09:55.124Z,56.53
2023-02-26T03:11:57.908Z,56.06
2023-02-26T03:14:00.847Z,56.23
2023-02-26T03:16:15.806Z,56.60
2023-02-26T03:18:26.600Z,55.92
2023-02-26T03:20:35.138Z,56.03
2023-02-26T03:22:46.267Z,56.03
2023-02-26T03:24:52.592Z,56.20
2023-02-26T03:26:59.445Z,56.22
2023-02-26T03:29:09.190Z,56.20
2023-02-26T03:31:18.130Z,56.77
2023-02-26T03:33:26.136Z,56.77
2023-02-26T03:35:39.165Z,56.28
2023-02-26T03:37:46.609Z,56.22
2023-02-26T03:39:53.136Z,56.34
2023-02-26T03:42:01.238Z,55.96
2023-02-26T03:44:09.012Z,55.88
2023-02-26T03:46:16.764Z,56.52
2023-02-26T03:48:24.212Z,56.34
2023-02-26T03:50:33.440Z,56.22
2023-02-26T03:52:40.112Z,56.13
2023-02-26T03:54:46.964Z,55.53
2023-02-26T03:56:50.700Z,55.42
2023-02-26T03:58:53.401Z,56.32
2023-02-26T04:01:03.170Z,56.20
2023-02-26T04:03:11.705Z,56.27
2023-02-26T04:05:18.906Z,56.11
2023-02-26T04:07:23.774Z,56.28
2023-02-26T04:09:26.681Z,56.33
2023-02-26T04:11:31.425Z,56.24
2023-02-26T04:13:34.517Z,56.61
2023-02-26T04:15:37.121Z,56.51
2023-02-26T04:17:39.740Z,55.69
2023-02-26T04:19:42.302Z,55.96
2023-02-26T04:21:44.919Z,56.26
2023-02-26T04:23:48.948Z,56.37
2023-02-26T04:25:51.759Z,55.99
2023-02-26T04:27:54.498Z,56.28
2023-02-26T04:29:57.095Z,56.00
2023-02-26T04:32:00.811Z,56.46
2023-02-26T04:34:03.806Z,56.50
2023-02-26T04:36:06.920Z,57.05
2023-02-26T04:38:09.503Z,56.54
2023-02-26T04:40:14.000Z,56.85
2023-02-26T04:42:16.570Z,56.86
2023-02-26T04:44:19.166Z,56.61
2023-02-26T04:46:21.830Z,56.80
2023-02-26T04:48:24.493Z,57.62
2023-02-26T04:50:27.168Z,57.51
2023-02-26T04:52:29.732Z,57.97
2023-02-26T04:54:32.386Z,57.61
2023-02-26T04:56:36.315Z,57.67
2023-02-26T04:58:39.198Z,57.69
2023-02-26T05:00:42.033Z,57.66
2023-02-26T05:02:44.642Z,57.88
2023-02-26T05:04:47.263Z,58.37
2023-02-26T05:06:49.890Z,58.01
2023-02-26T05:08:52.458Z,58.09
2023-02-26T05:10:55.190Z,58.15
2023-02-26T05:12:59.092Z,57.58
2023-02-26T05:15:01.722Z,57.73
2023-02-26T05:17:04.432Z,57.72
2023-02-26T05:19:09.483Z,58.42
2023-02-26T05:21:12.100Z,57.77
2023-02-26T05:23:14.723Z,57.87
2023-02-26T05:25:18.701Z,57.91
2023-02-26T05:27:21.287Z,57.80
2023-02-26T05:29:25.878Z,57.72
2023-02-26T05:31:28.723Z,57.65
2023-02-26T05:33:31.294Z,58.47
2023-02-26T05:35:34.076Z,58.30
2023-02-26T05:37:36.866Z,58.25
2023-02-26T05:39:41.080Z,57.69
2023-02-26T05:41:43.850Z,57.91
2023-02-26T05:43:46.459Z,58.07
2023-02-26T05:45:52.417Z,57.77
2023-02-26T05:47:54.997Z,57.76
2023-02-26T05:49:57.590Z,58.23
2023-02-26T05:52:00.122Z,57.96
2023-02-26T05:54:02.714Z,57.85
2023-02-26T05:56:05.878Z,57.77
2023-02-26T05:58:08.504Z,57.73
2023-02-26T06:00:12.796Z,57.73
2023-02-26T06:02:17.106Z,57.99
2023-02-26T06:04:19.757Z,58.00
2023-02-26T06:06:22.421Z,58.27
2023-02-26T06:08:25.052Z,58.09
2023-02-26T06:10:27.679Z,58.18
2023-02-26T06:12:30.306Z,58.22
2023-02-26T06:14:32.919Z,58.13
2023-02-26T06:16:36.589Z,58.77
2023-02-26T06:18:40.614Z,58.62
2023-02-26T06:20:43.194Z,58.51
2023-02-26T06:22:45.737Z,58.67
2023-02-26T06:24:48.280Z,58.36
2023-02-26T06:26:50.832Z,58.51
2023-02-26T06:28:53.390Z,58.62
2023-02-26T06:30:56.516Z,58.69
2023-02-26T06:32:59.097Z,59.21
2023-02-26T06:35:03.004Z,59.08
2023-02-26T06:37:05.622Z,58.79
2023-02-26T06:39:08.654Z,58.55
2023-02-26T06:41:11.237Z,58.86
2023-02-26T06:43:13.857Z,58.41
2023-02-26T06:45:16.786Z,59.08
2023-02-26T06:47:19.545Z,59.27
2023-02-26T06:49:22.221Z,58.71
2023-02-26T06:51:26.130Z,58.63
2023-02-26T06:53:28.713Z,59.00
2023-02-26T06:55:31.283Z,59.35
2023-02-26T06:57:33.901Z,59.48
2023-02-26T06:59:36.497Z,59.38
2023-02-26T07:01:39.245Z,59.76
2023-02-26T07:03:41.844Z,59.68
2023-02-26T07:05:45.411Z,59.74
2023-02-26T07:07:49.353Z,59.07
2023-02-26T07:09:52.188Z,59.07
2023-02-26T07:11:54.792Z,59.47
2023-02-26T07:13:57.413Z,59.34
2023-02-26T07:15:59.961Z,59.88
2023-02-26T07:18:02.526Z,59.97
2023-02-26T07:20:06.688Z,60.21
2023-02-26T07:22:09.243Z,59.40
2023-02-26T07:24:13.253Z,59.50
2023-02-26T07:26:17.465Z,59.49
2023-02-26T07:28:20.630Z,60.02
2023-02-26T07:30:23.463Z,59.83
2023-02-26T07:32:26.315Z,59.75
2023-02-26T07:34:29.303Z,59.78
2023-02-26T07:36:31.943Z,60.08
2023-02-26T07:38:34.541Z,60.55
2023-02-26T07:40:38.453Z,60.16
2023-02-26T07:42:41.424Z,60.78
2023-02-26T07:44:44.142Z,60.33
2023-02-26T07:46:47.014Z,60.79
2023-02-26T07:48:49.560Z,60.50
2023-02-26T07:50:53.421Z,60.53
2023-02-26T07:52:55.982Z,60.30
2023-02-26T07:54:58.542Z,60.41
2023-02-26T07:57:02.783Z,60.54
2023-02-26T07:59:05.352Z,60.55
2023-02-26T08:01:08.052Z,60.50
2023-02-26T08:03:10.683Z,60.02
2023-02-26T08:05:13.292Z,60.25
2023-02-26T08:07:18.294Z,60.45
2023-02-26T08:09:20.974Z,60.48
2023-02-26T08:11:23.655Z,60.37
2023-02-26T08:13:27.731Z,60.32
2023-02-26T08:15:30.439Z,60.42
2023-02-26T08:17:33.134Z,60.06
2023-02-26T08:19:36.558Z,59.68
2023-02-26T08:21:39.144Z,60.08
2023-02-26T08:23:41.754Z,60.24
2023-02-26T08:25:44.323Z,60.66
2023-02-26T08:27:46.880Z,61.77
2023-02-26T08:29:51.199Z,62.62
2023-02-26T08:31:56.868Z,63.18
2023-02-26T08:33:59.507Z,63.69
2023-02-26T08:36:02.160Z,63.57
2023-02-26T08:38:04.742Z,63.87
2023-02-26T08:40:09.059Z,63.68
2023-02-26T08:42:12.352Z,63.62
2023-02-26T08:44:14.928Z,64.33
2023-02-26T08:46:18.881Z,63.90
2023-02-26T08:48:21.987Z,64.16
2023-02-26T08:50:24.859Z,64.16
2023-02-26T08:52:27.498Z,64.47
2023-02-26T08:54:30.054Z,64.22
2023-02-26T08:56:32.806Z,63.87
2023-02-26T08:58:35.426Z,63.57
2023-02-26T09:00:38.125Z,62.86
2023-02-26T09:02:42.245Z,63.03
2023-02-26T09:04:44.834Z,62.58
2023-02-26T09:06:47.422Z,63.16
2023-02-26T09:08:50.289Z,62.84
2023-02-26T09:10:52.904Z,62.71
2023-02-26T09:12:55.582Z,62.41
2023-02-26T09:14:59.041Z,62.20
2023-02-26T09:17:01.653Z,61.29
2023-02-26T09:19:07.117Z,60.88
2023-02-26T09:21:09.713Z,61.42
2023-02-26T09:23:13.415Z,61.21
2023-02-26T09:25:17.440Z,61.13
2023-02-26T09:27:20.093Z,61.11
2023-02-26T09:29:22.904Z,60.73
2023-02-26T09:31:25.661Z,60.11
2023-02-26T09:33:28.493Z,59.39
2023-02-26T09:35:32.444Z,59.08
2023-02-26T09:37:35.120Z,59.79
2023-02-26T09:39:38.038Z,59.70
2023-02-26T09:41:44.911Z,59.66
2023-02-26T09:44:28.727Z,59.13
2023-02-26T09:46:42.065Z,59.67
2023-02-26T09:48:46.477Z,59.24
2023-02-26T09:50:53.903Z,58.73
2023-02-26T09:53:02.665Z,58.74
2023-02-26T09:55:12.049Z,58.35
2023-02-26T09:57:26.458Z,59.45
2023-02-26T09:59:32.733Z,59.67
2023-02-26T10:01:43.665Z,58.73
2023-02-26T10:04:02.013Z,59.23
2023-02-26T10:06:19.717Z,59.38
2023-02-26T10:08:29.381Z,59.32
2023-02-26T10:10:39.095Z,59.43
2023-02-26T10:12:44.090Z,59.35
2023-02-26T10:14:51.997Z,58.61
2023-02-26T10:16:59.205Z,58.53
2023-02-26T10:19:07.222Z,58.03
2023-02-26T10:21:18.331Z,56.53
2023-02-26T10:23:26.122Z,56.45
2023-02-26T10:25:34.377Z,56.40
2023-02-26T10:27:49.313Z,57.13
2023-02-26T10:29:59.776Z,56.84
2023-02-26T10:32:13.261Z,56.28
2023-02-26T10:34:21.673Z,55.26
2023-02-26T10:36:27.366Z,54.56
2023-02-26T10:38:32.919Z,54.65
2023-02-26T10:40:39.583Z,54.99
2023-02-26T10:42:47.751Z,55.44
2023-02-26T10:45:01.404Z,55.89
2023-02-26T10:47:13.407Z,57.12
2023-02-26T10:49:43.662Z,55.73
2023-02-26T10:51:48.016Z,56.84
2023-02-26T10:53:55.516Z,56.65
2023-02-26T10:56:05.291Z,57.98
2023-02-26T10:58:13.275Z,57.58
2023-02-26T11:00:20.329Z,57.33
2023-02-26T11:02:37.045Z,57.55
2023-02-26T11:04:40.758Z,58.17
2023-02-26T11:06:50.290Z,58.20
2023-02-26T11:08:57.351Z,58.07
2023-02-26T11:11:01.576Z,57.93
2023-02-26T11:13:04.934Z,57.86
2023-02-26T11:15:13.388Z,57.71
2023-02-26T11:17:23.393Z,58.01
2023-02-26T11:19:29.426Z,58.64
2023-02-26T11:21:39.863Z,58.34
2023-02-26T11:23:44.508Z,58.81
2023-02-26T11:25:55.268Z,58.82
2023-02-26T11:28:04.543Z,58.62
2023-02-26T11:30:16.749Z,58.52
2023-02-26T11:32:21.451Z,58.43
2023-02-26T11:34:25.392Z,57.96
2023-02-26T11:36:30.722Z,57.99
2023-02-26T11:38:34.390Z,58.40
2023-02-26T11:40:39.805Z,58.94
2023-02-26T11:42:49.388Z,58.72
2023-02-26T11:44:52.809Z,57.96
2023-02-26T11:46:58.276Z,57.91
2023-02-26T11:49:02.526Z,57.86
2023-02-26T11:51:06.796Z,57.74
2023-02-26T11:53:18.959Z,57.72
2023-02-26T11:55:27.766Z,58.05
2023-02-26T11:57:32.741Z,58.53
2023-02-26T11:59:41.806Z,58.16
2023-02-26T12:01:44.468Z,58.61
2023-02-26T12:03:51.074Z,58.66
2023-02-26T12:05:54.247Z,58.79
2023-02-26T12:07:56.896Z,58.64
2023-02-26T12:09:59.473Z,57.32
2023-02-26T12:12:26.944Z,57.43
2023-02-26T12:14:48.515Z,57.90
2023-02-26T12:17:02.911Z,57.78
2023-02-26T12:19:12.275Z,57.43
2023-02-26T12:21:29.084Z,58.50
2023-02-26T12:23:51.474Z,58.00
2023-02-26T12:26:12.967Z,58.15
2023-02-26T12:28:41.448Z,57.53
2023-02-26T12:31:01.434Z,57.50
2023-02-26T12:33:18.108Z,58.24
2023-02-26T12:35:40.367Z,59.09
2023-02-26T12:37:53.204Z,58.72
2023-02-26T12:40:06.449Z,57.91
2023-02-26T12:42:20.975Z,57.63
2023-02-26T12:44:52.229Z,57.79
2023-02-26T12:47:27.246Z,57.75
2023-02-26T12:49:44.688Z,58.67
2023-02-26T12:52:05.033Z,58.47
2023-02-26T12:54:23.568Z,58.81
2023-02-26T12:56:44.522Z,59.89
2023-02-26T12:59:02.648Z,59.77
2023-02-26T13:01:17.599Z,59.31
2023-02-26T13:03:40.949Z,59.09
2023-02-26T13:06:03.063Z,58.51
2023-02-26T13:08:16.589Z,58.55
2023-02-26T13:10:28.326Z,58.84
2023-02-26T13:12:39.462Z,59.07
2023-02-26T13:14:52.428Z,59.67
2023-02-26T13:17:02.256Z,59.59
2023-02-26T13:19:14.722Z,59.46
2023-02-26T13:21:21.945Z,59.05
2023-02-26T13:23:27.192Z,58.45
2023-02-26T13:25:38.210Z,58.16
2023-02-26T13:27:42.254Z,58.93
2023-02-26T13:29:49.326Z,58.71
2023-02-26T13:31:56.567Z,58.70
2023-02-26T13:34:03.610Z,57.15
2023-02-26T13:36:09.490Z,56.72
2023-02-26T13:38:20.841Z,56.83
2023-02-26T13:40:48.983Z,57.31
2023-02-26T13:43:01.619Z,57.58
2023-02-26T13:45:22.490Z,57.61
2023-02-26T13:47:42.735Z,56.78
2023-02-26T13:49:56.842Z,56.32
2023-02-26T13:52:00.814Z,55.71
2023-02-26T13:54:08.937Z,56.34
2023-02-26T13:56:17.018Z,56.51
2023-02-26T13:58:35.107Z,56.12
2023-02-26T14:00:47.123Z,56.48
2023-02-26T14:02:53.688Z,55.64
2023-02-26T14:04:59.789Z,56.35
2023-02-26T14:07:12.640Z,56.09
2023-02-26T14:09:46.878Z,56.02
2023-02-26T14:12:01.323Z,53.77
2023-02-26T14:14:12.434Z,53.78
2023-02-26T14:16:22.592Z,53.45
2023-02-26T14:18:37.037Z,53.66
2023-02-26T14:20:40.704Z,53.57
2023-02-26T14:22:49.127Z,53.67
2023-02-26T14:24:55.351Z,52.59
2023-02-26T14:27:10.551Z,53.12
2023-02-26T14:29:22.200Z,53.61
2023-02-26T14:31:27.673Z,53.84
2023-02-26T14:33:33.352Z,52.39
2023-02-26T14:35:41.006Z,52.77
2023-02-26T14:37:49.864Z,52.01
2023-02-26T14:39:58.680Z,52.23
2023-02-26T14:42:05.718Z,52.27
2023-02-26T14:44:15.957Z,51.58
2023-02-26T14:46:19.525Z,50.17
2023-02-26T14:48:29.320Z,50.47
2023-02-26T14:50:44.261Z,50.56
2023-02-26T14:53:03.613Z,51.13
2023-02-26T14:55:23.868Z,55.09
2023-02-26T14:57:36.193Z,59.31
2023-02-26T14:59:55.926Z,61.54
2023-02-26T15:02:11.743Z,61.44
2023-02-26T15:04:32.974Z,61.36
2023-02-26T15:06:51.647Z,60.47
2023-02-26T15:09:11.005Z,60.67
2023-02-26T15:11:37.044Z,59.94
2023-02-26T15:14:03.336Z,57.91
2023-02-26T15:16:17.491Z,57.54
2023-02-26T15:18:36.482Z,56.57
2023-02-26T15:20:48.625Z,54.93
2023-02-26T15:23:21.636Z,54.16
2023-02-26T15:25:30.480Z,54.11
2023-02-26T15:27:34.722Z,53.12
2023-02-26T15:29:39.846Z,52.81
2023-02-26T15:31:44.749Z,50.17
2023-02-26T15:33:49.329Z,50.48
2023-02-26T15:35:53.563Z,50.00
2023-02-26T15:37:58.182Z,50.32
2023-02-26T15:40:04.746Z,49.55
2023-02-26T15:42:11.188Z,50.46
2023-02-26T15:44:18.638Z,51.61
2023-02-26T15:46:27.410Z,53.88
2023-02-26T15:48:35.329Z,54.71
2023-02-26T15:50:42.096Z,54.88
2023-02-26T15:52:45.106Z,54.53
2023-02-26T15:54:51.467Z,54.77
2023-02-26T15:56:54.340Z,54.12
2023-02-26T15:59:02.466Z,54.66
2023-02-26T16:01:06.074Z,54.55
2023-02-26T16:03:10.846Z,54.88
2023-02-26T16:05:15.288Z,54.90
2023-02-26T16:07:17.886Z,55.16
2023-02-26T16:09:26.416Z,55.42
2023-02-26T16:11:34.107Z,55.25
2023-02-26T16:13:42.524Z,55.67
2023-02-26T16:15:48.746Z,57.18
2023-02-26T16:17:54.425Z,58.69
2023-02-26T16:20:00.011Z,59.21
2023-02-26T16:22:07.056Z,60.25
2023-02-26T16:24:16.010Z,60.50
2023-02-26T16:26:27.125Z,59.66
2023-02-26T16:28:35.068Z,59.67
2023-02-26T16:30:40.402Z,59.80
2023-02-26T16:32:46.961Z,59.98
2023-02-26T16:34:52.726Z,60.28
2023-02-26T16:36:55.681Z,60.53
2023-02-26T16:39:02.241Z,60.17
2023-02-26T16:41:10.863Z,59.73
2023-02-26T16:43:36.368Z,59.80
2023-02-26T16:45:50.753Z,60.06
2023-02-26T16:47:57.886Z,59.61
2023-02-26T16:50:04.463Z,59.67
2023-02-26T16:52:07.906Z,59.44
2023-02-26T16:54:18.821Z,59.19
2023-02-26T16:56:25.289Z,59.49
2023-02-26T16:58:30.606Z,59.63
2023-02-26T17:00:34.135Z,58.97
2023-02-26T17:02:39.511Z,58.16
2023-02-26T17:04:43.699Z,57.88
2023-02-26T17:06:47.864Z,56.47
2023-02-26T17:08:52.830Z,55.77
2023-02-26T17:11:01.421Z,54.60
2023-02-26T17:13:13.395Z,54.04
2023-02-26T17:15:21.014Z,52.20
2023-02-26T17:17:23.855Z,51.91
2023-02-26T17:19:26.740Z,52.37
2023-02-26T17:21:31.502Z,51.68
2023-02-26T17:23:38.124Z,51.77
2023-02-26T17:25:43.236Z,52.04
2023-02-26T17:27:47.565Z,51.88
2023-02-26T17:29:52.168Z,51.90
2023-02-26T17:31:54.904Z,51.73
2023-02-26T17:33:57.570Z,51.74
2023-02-26T17:36:02.069Z,52.50
2023-02-26T17:38:06.035Z,51.77
2023-02-26T17:40:20.265Z,51.20
2023-02-26T17:42:23.088Z,52.12
2023-02-26T17:44:26.588Z,51.64
2023-02-26T17:46:29.281Z,51.96
2023-02-26T17:48:32.004Z,50.90
2023-02-26T17:50:43.792Z,50.98
2023-02-26T17:52:46.277Z,51.28
2023-02-26T17:54:50.152Z,51.15
2023-02-26T17:56:52.880Z,50.67
2023-02-26T17:58:56.232Z,51.07
2023-02-26T18:00:59.227Z,50.58
2023-02-26T18:03:01.945Z,50.65
2023-02-26T18:05:04.808Z,50.83
2023-02-26T18:07:07.401Z,51.21
2023-02-26T18:09:12.766Z,51.15
2023-02-26T18:11:19.867Z,50.68
2023-02-26T18:13:23.057Z,51.00
2023-02-26T18:15:26.279Z,49.22
2023-02-26T18:17:31.080Z,49.53
2023-02-26T18:19:33.811Z,50.10
2023-02-26T18:21:36.435Z,49.90
2023-02-26T18:23:39.177Z,49.52
2023-02-26T18:25:42.672Z,49.96
2023-02-26T18:27:50.914Z,50.59
2023-02-26T18:29:54.515Z,50.45
2023-02-26T18:31:58.152Z,50.45
2023-02-26T18:34:02.352Z,50.44
2023-02-26T18:36:06.043Z,50.57
2023-02-26T18:38:11.636Z,50.80
2023-02-26T18:40:18.772Z,51.38
2023-02-26T18:42:23.104Z,50.57
2023-02-26T18:44:28.518Z,50.94
2023-02-26T18:46:31.164Z,50.39
2023-02-26T18:48:33.790Z,50.33
2023-02-26T18:50:36.477Z,50.21
2023-02-26T18:52:39.087Z,50.43
2023-02-26T18:54:41.889Z,51.17
2023-02-26T18:56:44.467Z,50.37
2023-02-26T18:58:47.051Z,50.60
2023-02-26T19:00:51.463Z,50.11
2023-02-26T19:02:54.083Z,50.99
2023-02-26T19:04:56.737Z,50.68
2023-02-26T19:06:59.370Z,50.69
2023-02-26T19:09:02.826Z,49.96
2023-02-26T19:11:06.923Z,50.57
2023-02-26T19:13:09.487Z,51.15
2023-02-26T19:15:13.884Z,51.16
2023-02-26T19:17:17.805Z,50.61
2023-02-26T19:19:20.356Z,51.07
2023-02-26T19:21:22.982Z,49.99
2023-02-26T19:23:25.682Z,49.98
2023-02-26T19:25:30.341Z,50.14
2023-02-26T19:27:33.224Z,50.25
2023-02-26T19:29:36.816Z,50.68
2023-02-26T19:31:39.635Z,50.72
2023-02-26T19:33:43.538Z,50.43
2023-02-26T19:35:46.105Z,50.14
2023-02-26T19:37:48.993Z,49.86
2023-02-26T19:39:51.563Z,49.85
2023-02-26T19:41:55.248Z,50.43
2023-02-26T19:43:58.585Z,50.06
2023-02-26T19:46:01.339Z,49.80
2023-02-26T19:48:04.099Z,50.38
2023-02-26T19:50:09.623Z,49.94
2023-02-26T19:52:12.240Z,49.47
2023-02-26T19:54:14.833Z,49.89
2023-02-26T19:56:17.406Z,50.13
2023-02-26T19:58:20.569Z,50.07
2023-02-26T20:00:23.649Z,49.21
2023-02-26T20:02:26.615Z,49.24
2023-02-26T20:04:29.274Z,49.42
2023-02-26T20:06:33.761Z,49.80
2023-02-26T20:08:36.406Z,49.99
2023-02-26T20:10:39.116Z,49.92
2023-02-26T20:12:41.678Z,50.58
2023-02-26T20:14:44.288Z,50.30
2023-02-26T20:16:46.827Z,50.57
2023-02-26T20:18:49.414Z,50.50
2023-02-26T20:20:52.856Z,50.62
2023-02-26T20:22:56.737Z,50.96
2023-02-26T20:24:59.323Z,50.60
2023-02-26T20:27:01.944Z,50.29
2023-02-26T20:29:04.926Z,49.68
2023-02-26T20:31:08.173Z,50.58
2023-02-26T20:33:10.966Z,50.41
2023-02-26T20:35:13.709Z,50.00
2023-02-26T20:37:16.284Z,49.81
2023-02-26T20:39:21.050Z,49.69
2023-02-26T20:41:23.658Z,49.41
2023-02-26T20:43:26.448Z,50.33
2023-02-26T20:45:29.910Z,50.31
2023-02-26T20:47:32.514Z,50.11
2023-02-26T20:49:35.155Z,49.20
2023-02-26T20:51:37.978Z,49.76
2023-02-26T20:53:40.951Z,50.56
2023-02-26T20:55:44.932Z,50.35
2023-02-26T20:57:48.326Z,50.26
2023-02-26T20:59:50.908Z,50.88
2023-02-26T21:01:53.947Z,51.38
2023-02-26T21:03:56.539Z,50.46
2023-02-26T21:05:59.104Z,50.84
2023-02-26T21:08:02.186Z,50.46
2023-02-26T21:10:05.263Z,50.89
2023-02-26T21:12:09.486Z,51.21
2023-02-26T21:14:12.252Z,50.73
2023-02-26T21:16:14.889Z,51.22
2023-02-26T21:18:17.481Z,51.16
2023-02-26T21:20:22.189Z,50.51
2023-02-26T21:22:25.016Z,50.90
2023-02-26T21:24:27.663Z,50.76
2023-02-26T21:26:30.340Z,50.90
2023-02-26T21:28:34.378Z,51.41
2023-02-26T21:30:37.279Z,51.56
2023-02-26T21:32:40.711Z,51.63
2023-02-26T21:34:43.339Z,51.75
2023-02-26T21:36:45.944Z,51.69
2023-02-26T21:38:48.492Z,52.19
2023-02-26T21:40:53.212Z,51.49
2023-02-26T21:42:55.798Z,52.34
2023-02-26T21:44:59.767Z,52.40
2023-02-26T21:47:03.625Z,52.30
2023-02-26T21:49:06.242Z,51.76
2023-02-26T21:51:08.979Z,52.30
2023-02-26T21:53:11.564Z,52.65
2023-02-26T21:55:14.537Z,52.28
2023-02-26T21:57:17.143Z,53.08
2023-02-26T21:59:20.118Z,52.21
2023-02-26T22:01:24.099Z,52.84
2023-02-26T22:03:26.786Z,52.81
2023-02-26T22:05:29.361Z,52.93
2023-02-26T22:07:32.038Z,53.30
2023-02-26T22:09:34.628Z,52.54
2023-02-26T22:11:37.545Z,53.03
2023-02-26T22:13:40.100Z,52.92
2023-02-26T22:15:42.957Z,53.27
2023-02-26T22:17:46.881Z,52.23
2023-02-26T22:19:49.415Z,53.27
2023-02-26T22:21:51.977Z,53.31
2023-02-26T22:23:54.589Z,53.18
2023-02-26T22:25:57.149Z,52.95
2023-02-26T22:27:59.720Z,53.47
2023-02-26T22:30:02.285Z,53.20
2023-02-26T22:32:04.952Z,53.38
2023-02-26T22:34:08.886Z,53.92
2023-02-26T22:36:11.567Z,53.93
2023-02-26T22:38:14.381Z,53.79
2023-02-26T22:40:17.051Z,53.69
2023-02-26T22:42:20.220Z,53.37
2023-02-26T22:44:22.908Z,52.96
2023-02-26T22:46:28.315Z,53.60
2023-02-26T22:48:31.024Z,53.76
2023-02-26T22:50:34.978Z,53.63
2023-02-26T22:52:37.543Z,54.25
2023-02-26T22:54:42.266Z,54.21
2023-02-26T22:56:44.824Z,54.78
2023-02-26T22:58:47.375Z,54.31
2023-02-26T23:00:49.957Z,54.57
2023-02-26T23:02:52.563Z,54.08
2023-02-26T23:04:55.178Z,54.70
2023-02-26T23:06:59.368Z,54.70
2023-02-26T23:09:01.955Z,55.57
2023-02-26T23:11:05.315Z,55.30
2023-02-26T23:13:07.865Z,55.29
2023-02-26T23:15:11.388Z,54.89
2023-02-26T23:17:16.852Z,55.33
2023-02-26T23:19:19.851Z,55.22
2023-02-26T23:21:22.427Z,55.19
2023-02-26T23:23:26.363Z,55.21
2023-02-26T23:25:29.032Z,55.12
2023-02-26T23:27:32.338Z,55.60
2023-02-26T23:29:34.912Z,55.63
2023-02-26T23:31:37.713Z,55.42
2023-02-26T23:33:40.427Z,55.81
2023-02-26T23:35:43.012Z,55.67
2023-02-26T23:37:45.778Z,56.12
2023-02-26T23:39:49.727Z,55.92
2023-02-26T23:41:52.338Z,55.47
2023-02-26T23:43:54.986Z,55.51
2023-02-26T23:45:57.608Z,56.26
2023-02-26T23:48:00.241Z,56.36
2023-02-26T23:50:02.905Z,55.54
2023-02-26T23:52:05.712Z,56.27
2023-02-26T23:54:08.263Z,56.35
2023-02-26T23:56:12.129Z,56.22
2023-02-26T23:58:14.737Z,56.48
